createdAt,value
2022-08-04T00:00:12.148Z,7.53
2022-08-04T00:02:45.519Z,3.50
2022-08-04T00:05:39.504Z,5.13
2022-08-04T00:08:27.208Z,3.03
2022-08-04T00:10:56.129Z,3.30
2022-08-04T00:13:25.193Z,3.30
2022-08-04T00:16:00.360Z,3.55
2022-08-04T00:18:28.978Z,3.92
2022-08-04T00:21:01.205Z,3.30
2022-08-04T00:24:12.320Z,5.20
2022-08-04T00:26:17.846Z,10.15
2022-08-04T00:28:45.855Z,6.53
2022-08-04T00:31:15.380Z,3.45
2022-08-04T00:33:46.863Z,5.18
2022-08-04T00:36:14.528Z,2.78
2022-08-04T00:38:42.805Z,3.42
2022-08-04T00:41:14.027Z,2.95
2022-08-04T00:43:58.543Z,10.13
2022-08-04T00:46:34.960Z,6.05
2022-08-04T00:49:21.359Z,2.85
2022-08-04T00:52:31.288Z,2.70
2022-08-04T00:55:06.877Z,15.68
2022-08-04T00:57:39.245Z,2.97
2022-08-04T01:00:12.033Z,3.65
2022-08-04T01:02:51.885Z,3.05
2022-08-04T01:05:29.362Z,2.90
2022-08-04T01:08:17.177Z,2.88
2022-08-04T01:10:47.728Z,2.83
2022-08-04T01:13:27.614Z,2.90
2022-08-04T01:16:00.698Z,3.25
2022-08-04T01:18:35.144Z,3.40
2022-08-04T01:21:21.697Z,2.97
2022-08-04T01:24:15.261Z,3.40
2022-08-04T01:26:53.824Z,3.70
2022-08-04T01:29:34.361Z,3.40
2022-08-04T01:32:14.117Z,3.72
2022-08-04T01:34:43.589Z,3.40
2022-08-04T01:37:11.162Z,3.85
2022-08-04T01:39:58.819Z,3.75
2022-08-04T01:42:32.048Z,3.40
2022-08-04T01:45:03.359Z,3.83
2022-08-04T01:47:31.538Z,3.63
2022-08-04T01:50:04.861Z,3.63
2022-08-04T01:52:32.853Z,3.40
2022-08-04T01:55:00.784Z,3.20
2022-08-04T01:57:37.496Z,3.60
2022-08-04T02:00:07.395Z,3.45
2022-08-04T02:02:35.083Z,3.50
2022-08-04T02:05:02.817Z,3.67
2022-08-04T02:07:45.376Z,4.13
2022-08-04T02:10:29.008Z,6.20
2022-08-04T02:13:02.328Z,4.00
2022-08-04T02:15:38.922Z,3.58
2022-08-04T02:18:13.591Z,3.75
2022-08-04T02:20:45.364Z,3.90
2022-08-04T02:23:17.006Z,4.07
2022-08-04T02:25:48.169Z,4.10
2022-08-04T02:28:27.786Z,3.97
2022-08-04T02:30:58.410Z,4.10
2022-08-04T02:33:32.473Z,3.75
2022-08-04T02:36:02.477Z,3.83
2022-08-04T02:38:39.045Z,3.80
2022-08-04T02:41:06.801Z,4.35
2022-08-04T02:43:51.569Z,3.70
2022-08-04T02:46:21.118Z,3.65
2022-08-04T02:48:49.837Z,5.68
2022-08-04T02:51:20.612Z,5.28
2022-08-04T02:53:50.531Z,10.90
2022-08-04T02:56:20.296Z,7.65
2022-08-04T02:58:52.199Z,4.22
2022-08-04T03:01:19.890Z,5.35
2022-08-04T03:03:50.105Z,4.25
2022-08-04T03:06:17.610Z,4.70
2022-08-04T03:09:03.414Z,4.40
2022-08-04T03:11:30.982Z,4.50
2022-08-04T03:14:30.999Z,4.40
2022-08-04T03:17:17.112Z,4.03
2022-08-04T03:20:03.130Z,4.03
2022-08-04T03:23:11.629Z,4.60
2022-08-04T03:26:06.902Z,4.00
2022-08-04T03:28:49.530Z,4.40
2022-08-04T03:31:23.080Z,3.85
2022-08-04T03:33:56.705Z,4.60
2022-08-04T03:36:28.489Z,3.83
2022-08-04T03:39:02.559Z,4.15
2022-08-04T03:41:59.821Z,6.53
2022-08-04T03:44:35.395Z,6.32
2022-08-04T03:47:02.861Z,4.90
2022-08-04T03:49:30.339Z,4.25
2022-08-04T03:52:16.406Z,4.50
2022-08-04T03:55:02.624Z,4.15
2022-08-04T03:57:30.216Z,8.02
2022-08-04T03:59:57.646Z,10.93
2022-08-04T04:02:34.258Z,15.60
2022-08-04T04:05:01.775Z,17.88
2022-08-04T04:07:58.056Z,21.60
2022-08-04T04:10:47.696Z,14.93
2022-08-04T04:13:33.720Z,12.27
2022-08-04T04:16:07.171Z,15.27
2022-08-04T04:18:45.632Z,8.88
2022-08-04T04:21:19.525Z,10.70
2022-08-04T04:24:02.421Z,19.80
2022-08-04T04:26:41.811Z,20.73
2022-08-04T04:29:15.667Z,13.48
2022-08-04T04:31:49.673Z,10.70
2022-08-04T04:34:44.190Z,4.03
2022-08-04T04:37:18.895Z,7.43
2022-08-04T04:39:46.742Z,4.18
2022-08-04T04:42:26.436Z,6.63
2022-08-04T04:45:04.367Z,4.28
2022-08-04T04:48:08.911Z,13.32
2022-08-04T04:50:36.851Z,4.35
2022-08-04T04:53:27.565Z,4.72
2022-08-04T04:56:00.539Z,13.25
2022-08-04T04:58:28.684Z,7.43
2022-08-04T05:01:07.904Z,5.68
2022-08-04T05:03:54.079Z,7.45
2022-08-04T05:06:24.292Z,8.02
2022-08-04T05:09:08.748Z,4.60
2022-08-04T05:11:39.231Z,4.53
2022-08-04T05:14:38.054Z,5.47
2022-08-04T05:17:12.126Z,3.90
2022-08-04T05:19:39.580Z,5.22
2022-08-04T05:22:18.989Z,3.83
2022-08-04T05:24:48.692Z,4.22
2022-08-04T05:27:29.405Z,3.50
2022-08-04T05:29:59.951Z,3.78
2022-08-04T05:32:29.199Z,3.45
2022-08-04T05:34:59.945Z,3.75
2022-08-04T05:37:28.317Z,3.80
2022-08-04T05:39:59.165Z,2.97
2022-08-04T05:42:27.158Z,3.58
2022-08-04T05:44:55.682Z,3.05
2022-08-04T05:47:23.725Z,2.90
2022-08-04T05:49:55.534Z,2.80
2022-08-04T05:52:29.101Z,2.30
2022-08-04T05:54:57.401Z,2.80
2022-08-04T05:57:26.959Z,2.35
2022-08-04T05:59:56.472Z,2.60
2022-08-04T06:02:24.901Z,2.47
2022-08-04T06:04:53.390Z,2.30
2022-08-04T06:07:21.127Z,2.38
2022-08-04T06:09:48.778Z,3.97
2022-08-04T06:12:21.262Z,4.45
2022-08-04T06:14:50.775Z,2.92
2022-08-04T06:19:56.613Z,2.67
2022-08-04T06:20:18.406Z,2.53
2022-08-04T06:22:57.561Z,2.35
2022-08-04T06:25:27.622Z,2.20
2022-08-04T06:27:55.713Z,2.40
2022-08-04T06:30:26.723Z,2.20
2022-08-04T06:33:03.562Z,2.33
2022-08-04T06:35:33.416Z,2.22
2022-08-04T06:38:01.778Z,2.63
2022-08-04T06:40:33.450Z,2.70
2022-08-04T06:43:05.455Z,2.40
2022-08-04T06:45:34.961Z,2.25
2022-08-04T06:48:03.336Z,2.33
2022-08-04T06:51:27.120Z,2.50
2022-08-04T06:53:19.001Z,2.33
2022-08-04T06:55:47.623Z,2.05
2022-08-04T06:58:16.251Z,2.25
2022-08-04T07:00:45.419Z,2.47
2022-08-04T07:03:13.036Z,2.30
2022-08-04T07:05:41.418Z,2.67
2022-08-04T07:08:11.003Z,2.35
2022-08-04T07:10:38.868Z,2.63
2022-08-04T07:13:07.659Z,2.78
2022-08-04T07:15:36.342Z,3.60
2022-08-04T07:18:05.253Z,3.20
2022-08-04T07:20:35.445Z,2.70
2022-08-04T07:23:07.886Z,2.20
2022-08-04T07:25:59.093Z,2.05
2022-08-04T07:28:33.460Z,2.40
2022-08-04T07:31:03.036Z,2.08
2022-08-04T07:33:31.180Z,2.20
2022-08-04T07:36:09.346Z,2.50
2022-08-04T07:38:50.706Z,2.10
2022-08-04T07:41:41.974Z,2.22
2022-08-04T07:44:14.160Z,2.05
2022-08-04T07:46:41.994Z,2.03
2022-08-04T07:49:09.484Z,2.00
2022-08-04T07:51:38.005Z,2.28
2022-08-04T07:54:07.681Z,2.00
2022-08-04T07:56:37.123Z,2.00
2022-08-04T07:59:05.299Z,2.00
2022-08-04T08:01:33.272Z,2.22
2022-08-04T08:04:01.224Z,2.08
2022-08-04T08:06:32.664Z,1.90
2022-08-04T08:09:12.498Z,2.63
2022-08-04T08:12:38.550Z,2.00
2022-08-04T08:14:35.135Z,2.03
2022-08-04T08:17:03.362Z,4.20
2022-08-04T08:19:32.019Z,2.45
2022-08-04T08:22:01.288Z,1.85
2022-08-04T08:24:30.045Z,2.42
2022-08-04T08:26:57.613Z,2.20
2022-08-04T08:29:26.817Z,4.85
2022-08-04T08:31:57.319Z,3.00
2022-08-04T08:34:28.839Z,2.60
2022-08-04T08:37:16.852Z,1.92
2022-08-04T08:40:03.011Z,2.35
2022-08-04T08:42:36.525Z,1.95
2022-08-04T08:48:05.099Z,1.75
2022-08-04T08:50:25.685Z,2.20
2022-08-04T08:53:01.963Z,9.43
2022-08-04T08:55:36.179Z,2.50
2022-08-04T08:58:03.625Z,2.28
2022-08-04T09:00:34.039Z,2.00
2022-08-04T09:03:20.446Z,2.50
2022-08-04T09:05:47.920Z,2.13
2022-08-04T09:08:24.286Z,1.95
2022-08-04T09:10:55.043Z,2.00
2022-08-04T09:13:27.640Z,2.10
2022-08-04T09:16:04.417Z,2.30
2022-08-04T09:18:37.579Z,2.03
2022-08-04T09:21:13.644Z,2.40
2022-08-04T09:23:47.631Z,2.17
2022-08-04T09:28:54.073Z,2.20
2022-08-04T09:31:24.244Z,2.70
2022-08-04T09:34:00.849Z,4.50
2022-08-04T09:36:31.319Z,3.90
2022-08-04T09:38:59.007Z,3.20
2022-08-04T09:41:48.725Z,2.10
2022-08-04T09:44:50.139Z,2.40
2022-08-04T09:47:08.331Z,1.90
2022-08-04T09:49:50.087Z,2.17
2022-08-04T09:52:17.589Z,2.20
2022-08-04T09:54:45.069Z,2.05
2022-08-04T09:57:19.031Z,2.05
2022-08-04T10:02:18.630Z,2.53
2022-08-04T10:04:46.575Z,2.50
2022-08-04T10:07:32.851Z,2.50
2022-08-04T10:10:18.652Z,2.20
2022-08-04T10:13:12.461Z,2.53
2022-08-04T10:15:58.837Z,3.92
2022-08-04T10:18:30.832Z,6.82
2022-08-04T10:21:13.515Z,4.00
2022-08-04T10:24:01.637Z,2.85
2022-08-04T10:26:40.193Z,2.58
2022-08-04T10:29:15.680Z,2.13
2022-08-04T10:31:49.524Z,2.38
2022-08-04T10:34:25.929Z,2.17
2022-08-04T10:37:11.955Z,2.67
2022-08-04T10:40:08.416Z,2.47
2022-08-04T10:42:38.139Z,2.40
2022-08-04T10:45:17.097Z,2.28
2022-08-04T10:47:53.376Z,2.70
2022-08-04T10:50:22.413Z,3.08
2022-08-04T10:52:56.431Z,2.28
2022-08-04T10:56:08.016Z,2.30
2022-08-04T10:58:47.817Z,2.58
2022-08-04T11:02:01.954Z,3.03
2022-08-04T11:04:32.204Z,2.45
2022-08-04T11:07:01.165Z,2.90
2022-08-04T11:09:30.252Z,5.10
2022-08-04T11:12:00.932Z,2.40
2022-08-04T11:14:37.153Z,2.85
2022-08-04T11:17:08.118Z,3.20
2022-08-04T11:19:44.661Z,2.10
2022-08-04T11:22:24.496Z,2.40
2022-08-04T11:24:52.060Z,2.85
2022-08-04T11:27:29.058Z,2.50
2022-08-04T11:30:05.430Z,2.10
2022-08-04T11:32:36.003Z,2.50
2022-08-04T11:35:05.189Z,2.30
2022-08-04T11:37:53.132Z,2.30
2022-08-04T11:40:30.172Z,2.50
2022-08-04T11:43:02.062Z,2.40
2022-08-04T11:45:37.748Z,2.70
2022-08-04T11:48:09.520Z,3.17
2022-08-04T11:50:45.122Z,2.10
2022-08-04T11:53:17.275Z,2.75
2022-08-04T11:56:07.060Z,2.88
2022-08-04T11:58:33.958Z,2.20
2022-08-04T12:01:01.399Z,2.53
2022-08-04T12:03:44.121Z,2.22
2022-08-04T12:06:33.986Z,2.30
2022-08-04T12:09:10.094Z,2.40
2022-08-04T12:12:01.623Z,3.70
2022-08-04T12:14:34.617Z,2.55
2022-08-04T12:17:03.266Z,2.85
2022-08-04T12:19:54.750Z,3.42
2022-08-04T12:22:29.810Z,2.63
2022-08-04T12:25:06.544Z,2.75
2022-08-04T12:27:35.941Z,2.40
2022-08-04T12:30:59.156Z,2.20
2022-08-04T12:32:57.669Z,2.30
2022-08-04T12:35:28.355Z,4.10
2022-08-04T12:38:02.833Z,2.95
2022-08-04T12:40:34.366Z,2.65
2022-08-04T12:43:22.621Z,2.60
2022-08-04T12:45:51.116Z,3.38
2022-08-04T12:48:21.533Z,2.55
2022-08-04T12:50:56.622Z,2.80
2022-08-04T12:53:31.933Z,2.28
2022-08-04T12:56:01.424Z,5.05
2022-08-04T12:58:43.117Z,2.65
2022-08-04T13:02:08.320Z,2.40
2022-08-04T13:04:20.869Z,2.17
2022-08-04T13:06:58.530Z,2.22
2022-08-04T13:09:29.034Z,3.30
2022-08-04T13:12:02.488Z,2.30
2022-08-04T13:14:32.780Z,2.75
2022-08-04T13:17:01.304Z,4.95
2022-08-04T13:19:31.935Z,5.90
2022-08-04T13:22:09.516Z,2.58
2022-08-04T13:24:56.382Z,2.53
2022-08-04T13:27:25.308Z,2.40
2022-08-04T13:29:59.494Z,2.55
2022-08-04T13:32:31.559Z,3.17
2022-08-04T13:35:01.416Z,2.20
2022-08-04T13:37:35.547Z,3.00
2022-08-04T13:40:05.034Z,2.55
2022-08-04T13:42:35.578Z,2.60
2022-08-04T13:45:05.905Z,2.50
2022-08-04T13:47:35.044Z,2.50
2022-08-04T13:50:17.980Z,3.22
2022-08-04T13:52:47.619Z,2.50
2022-08-04T13:55:23.024Z,2.72
2022-08-04T13:57:51.779Z,3.40
2022-08-04T14:00:29.838Z,2.80
2022-08-04T14:03:23.895Z,2.30
2022-08-04T14:06:10.180Z,3.00
2022-08-04T14:08:44.492Z,2.78
2022-08-04T14:12:06.494Z,2.95
2022-08-04T14:13:59.831Z,2.47
2022-08-04T14:16:27.267Z,3.83
2022-08-04T14:19:02.175Z,2.50
2022-08-04T14:21:29.752Z,2.47
2022-08-04T14:23:58.035Z,2.65
2022-08-04T14:26:32.717Z,3.33
2022-08-04T14:29:26.255Z,4.32
2022-08-04T14:32:01.924Z,5.55
2022-08-04T14:34:31.298Z,3.75
2022-08-04T14:37:18.519Z,4.13
2022-08-04T14:40:18.171Z,3.60
2022-08-04T14:42:43.721Z,2.70
2022-08-04T14:45:12.310Z,3.13
2022-08-04T14:47:52.677Z,3.00
2022-08-04T14:50:21.286Z,2.42
2022-08-04T14:52:48.853Z,3.17
2022-08-04T14:55:25.831Z,2.67
2022-08-04T14:58:33.746Z,3.35
2022-08-04T15:00:41.086Z,2.30
2022-08-04T15:03:09.481Z,2.20
2022-08-04T15:05:59.871Z,2.60
2022-08-04T15:08:31.012Z,2.92
2022-08-04T15:10:59.963Z,2.50
2022-08-04T15:13:27.724Z,2.67
2022-08-04T15:16:07.435Z,4.45
2022-08-04T15:18:36.892Z,2.78
2022-08-04T15:21:05.004Z,2.42
2022-08-04T15:23:38.815Z,3.00
2022-08-04T15:26:08.508Z,2.70
2022-08-04T15:28:36.843Z,2.70
2022-08-04T15:31:10.476Z,3.58
2022-08-04T15:33:55.468Z,8.15
2022-08-04T15:36:28.414Z,18.90
2022-08-04T15:39:11.010Z,3.75
2022-08-04T15:41:55.137Z,2.70
2022-08-04T15:46:50.672Z,2.20
2022-08-04T15:49:24.674Z,2.80
2022-08-04T15:54:23.469Z,2.50
2022-08-04T15:57:02.798Z,3.20
2022-08-04T15:59:49.413Z,2.65
2022-08-04T16:02:35.466Z,2.97
2022-08-04T16:05:17.820Z,3.38
2022-08-04T16:08:04.747Z,2.70
2022-08-04T16:10:35.015Z,2.80
2022-08-04T16:13:05.637Z,3.30
2022-08-04T16:15:39.292Z,4.10
2022-08-04T16:18:12.266Z,2.50
2022-08-04T16:20:57.831Z,2.45
2022-08-04T16:23:53.511Z,2.40
2022-08-04T16:26:45.832Z,6.88
2022-08-04T16:29:33.877Z,4.07
2022-08-04T16:32:07.203Z,2.90
2022-08-04T16:34:49.858Z,2.50
2022-08-04T16:37:24.034Z,2.45
2022-08-04T16:40:11.455Z,2.92
2022-08-04T16:42:39.223Z,2.38
2022-08-04T16:45:11.597Z,2.28
2022-08-04T16:47:48.117Z,2.63
2022-08-04T16:50:15.943Z,2.63
2022-08-04T16:52:43.900Z,2.30
2022-08-04T16:55:12.383Z,2.30
2022-08-04T16:57:42.941Z,2.80
2022-08-04T17:00:10.952Z,5.30
2022-08-04T17:02:38.516Z,5.10
2022-08-04T17:05:07.883Z,2.40
2022-08-04T17:08:07.182Z,2.85
2022-08-04T17:10:41.260Z,2.50
2022-08-04T17:14:02.674Z,2.63
2022-08-04T17:16:18.074Z,2.42
2022-08-04T17:18:47.721Z,2.85
2022-08-04T17:21:25.505Z,8.25
2022-08-04T17:24:15.326Z,16.95
2022-08-04T17:26:51.592Z,4.25
2022-08-04T17:29:43.623Z,2.85
2022-08-04T17:32:17.017Z,2.85
2022-08-04T17:34:47.588Z,3.20
2022-08-04T17:40:10.168Z,4.30
2022-08-04T17:42:39.962Z,4.28
2022-08-04T17:48:00.690Z,6.28
2022-08-04T17:50:35.057Z,7.53
2022-08-04T17:53:11.587Z,5.60
2022-08-04T17:55:40.307Z,3.05
2022-08-04T17:58:20.977Z,3.53
2022-08-04T18:00:52.025Z,4.00
2022-08-04T18:03:29.996Z,11.95
2022-08-04T18:06:03.425Z,11.98
2022-08-04T18:08:34.923Z,4.72
2022-08-04T18:11:10.315Z,3.55
2022-08-04T18:13:43.556Z,3.33
2022-08-04T18:16:21.932Z,3.00
2022-08-04T18:19:10.385Z,3.67
2022-08-04T18:21:46.444Z,4.07
2022-08-04T18:24:34.276Z,3.10
2022-08-04T18:27:06.610Z,3.20
2022-08-04T18:29:39.077Z,2.90
2022-08-04T18:34:55.695Z,2.88
2022-08-04T18:38:11.515Z,3.30
2022-08-04T18:40:30.058Z,4.00
2022-08-04T18:43:01.149Z,5.30
2022-08-04T18:45:34.394Z,5.00
2022-08-04T18:48:03.981Z,4.78
2022-08-04T18:51:10.420Z,3.67
2022-08-04T18:53:35.159Z,4.10
2022-08-04T18:56:03.907Z,5.78
2022-08-04T18:58:33.952Z,4.78
2022-08-04T19:01:13.463Z,6.90
2022-08-04T19:03:44.685Z,6.05
2022-08-04T19:06:15.845Z,5.47
2022-08-04T19:08:45.273Z,5.50
2022-08-04T19:11:29.319Z,6.35
2022-08-04T19:14:02.163Z,6.68
2022-08-04T19:16:30.275Z,6.63
2022-08-04T19:18:58.532Z,7.90
2022-08-04T19:22:00.608Z,6.93
2022-08-04T19:24:31.938Z,11.65
2022-08-04T19:27:06.827Z,6.25
2022-08-04T19:29:37.202Z,6.25
2022-08-04T19:32:05.094Z,5.13
2022-08-04T19:34:45.824Z,5.63
2022-08-04T19:37:57.232Z,8.05
2022-08-04T19:40:07.302Z,8.80
2022-08-04T19:42:35.715Z,9.23
2022-08-04T19:45:03.339Z,8.80
2022-08-04T19:48:16.138Z,7.85
2022-08-04T19:50:18.445Z,6.85
2022-08-04T19:52:51.731Z,5.28
2022-08-04T19:55:22.381Z,4.70
2022-08-04T19:57:50.725Z,5.82
2022-08-04T20:00:33.809Z,4.65
2022-08-04T20:03:03.014Z,3.60
2022-08-04T20:05:54.255Z,5.82
2022-08-04T20:08:18.688Z,4.00
2022-08-04T20:10:51.603Z,5.85
2022-08-04T20:13:20.401Z,3.97
2022-08-04T20:15:57.344Z,5.70
2022-08-04T20:18:55.596Z,5.68
2022-08-04T20:21:19.828Z,6.45
2022-08-04T20:23:52.499Z,7.25
2022-08-04T20:26:20.267Z,6.15
2022-08-04T20:28:51.628Z,7.00
2022-08-04T20:31:19.845Z,6.43
2022-08-04T20:33:53.495Z,6.30
2022-08-04T20:36:23.090Z,5.85
2022-08-04T20:38:52.687Z,6.32
2022-08-04T20:41:23.971Z,6.70
2022-08-04T20:43:51.528Z,6.78
2022-08-04T20:46:29.463Z,6.45
2022-08-04T20:48:58.408Z,7.20
2022-08-04T20:51:32.275Z,8.07
2022-08-04T20:54:16.593Z,7.40
2022-08-04T20:56:50.921Z,7.32
2022-08-04T20:59:19.369Z,7.13
2022-08-04T21:01:49.537Z,6.50
2022-08-04T21:07:05.809Z,6.50
2022-08-04T21:09:38.019Z,6.55
2022-08-04T21:12:28.369Z,7.38
2022-08-04T21:15:01.442Z,6.35
2022-08-04T21:17:59.163Z,12.60
2022-08-04T21:20:29.117Z,13.20
2022-08-04T21:22:59.406Z,8.75
2022-08-04T21:25:29.778Z,8.68
2022-08-04T21:27:58.905Z,9.70
2022-08-04T21:30:29.784Z,7.78
2022-08-04T21:32:57.243Z,7.35
2022-08-04T21:35:30.885Z,6.90
2022-08-04T21:38:16.359Z,10.77
2022-08-04T21:40:54.749Z,5.10
2022-08-04T21:43:23.569Z,6.32
2022-08-04T21:45:55.007Z,4.72
2022-08-04T21:48:27.262Z,5.15
2022-08-04T21:50:55.642Z,4.65
2022-08-04T21:53:24.764Z,4.63
2022-08-04T21:56:04.706Z,4.50
2022-08-04T21:58:44.783Z,4.70
2022-08-04T22:01:13.570Z,5.15
2022-08-04T22:04:00.506Z,4.88
2022-08-04T22:06:29.272Z,5.60
2022-08-04T22:08:57.149Z,5.88
2022-08-04T22:11:49.148Z,5.47
2022-08-04T22:14:15.649Z,7.28
2022-08-04T22:16:45.170Z,11.52
2022-08-04T22:19:13.672Z,6.03
2022-08-04T22:21:45.117Z,4.97
2022-08-04T22:24:14.558Z,16.25
2022-08-04T22:26:42.446Z,6.47
2022-08-04T22:29:14.368Z,5.57
2022-08-04T22:31:55.555Z,5.80
2022-08-04T22:34:53.558Z,6.45
2022-08-04T22:37:28.593Z,5.47
2022-08-04T22:40:31.796Z,5.30
2022-08-04T22:43:02.977Z,4.43
2022-08-04T22:45:44.686Z,3.50
2022-08-04T22:48:12.640Z,3.67
2022-08-04T22:50:40.074Z,3.72
2022-08-04T22:53:08.392Z,3.33
2022-08-04T22:56:06.297Z,4.70
2022-08-04T22:58:23.608Z,3.53
2022-08-04T23:00:58.377Z,3.40
2022-08-04T23:03:37.472Z,3.10
2022-08-04T23:06:10.616Z,3.45
2022-08-04T23:08:39.338Z,3.40
2022-08-04T23:11:11.355Z,3.45
2022-08-04T23:13:38.913Z,3.28
2022-08-04T23:16:10.200Z,3.33
2022-08-04T23:18:40.024Z,3.40
2022-08-04T23:21:10.205Z,3.22
2022-08-04T23:23:38.269Z,3.53
2022-08-04T23:26:18.673Z,3.38
2022-08-04T23:28:58.496Z,3.38
2022-08-04T23:31:28.233Z,3.20
2022-08-04T23:34:12.071Z,3.40
2022-08-04T23:36:40.364Z,3.30
2022-08-04T23:39:07.860Z,3.45
2022-08-04T23:41:53.768Z,3.83
2022-08-04T23:44:25.626Z,3.08
2022-08-04T23:47:03.377Z,3.17
2022-08-04T23:49:43.305Z,3.28
2022-08-04T23:52:23.573Z,3.30
2022-08-04T23:54:58.776Z,3.58
2022-08-04T23:57:31.289Z,3.83
